KOGD/OGD METAR and TAF weather

Enter ICAO airport designator
Station Type Date Time Source
KOGD METAR 2020/09/26 11:53 UTC NOAA

KOGD 261153Z AUTO 19004KT 10SM CLR 17/M01 A2998 RMK AO2 SLP099 T01671006 10183 20156 51003


Station Type Date Time Source
KOGD Decoded METAR 2020/09/26 11:53 UTC NOAA

OGDEN-HINCKLEY AIRPORT, UT, United States (KOGD) 41-12N 112-01W 1353M
Sep 26, 2020 - 07:53 AM EDT / 2020.09.26 1153 UTC
Wind: from the S (190 degrees) at 5 MPH (4 KT):0
Visibility: 10 mile(s):0
Sky conditions: clear
Temperature: 62.1 F (16.7 C)
Dew Point: 30.9 F (-0.6 C)
Relative Humidity: 30%
Pressure (altimeter): 29.98 in. Hg (1015 hPa)
Pressure tendency: 0.01 inches (0.3 hPa) higher than three hours ago
ob: KOGD 261153Z AUTO 19004KT 10SM CLR 17/M01 A2998 RMK AO2 SLP099 T01671006 10183 20156 51003
cycle: 12

Station Type Date Time Source
KOGD TAF 2020/09/26 12:22 UTC NOAA

TAF KOGD 261120Z 2612/2712 16006KT P6SM SCT100 BKN200
FM261400 34008KT P6SM SCT100 BKN200

Example: see airport list